Time;durP1;ratioP1;P1;durP2;ratioP2;P2;SDS_P1;SDS_P2;PMS_P1;PMS_P2;Temp;Humidity;BMP_temperature;BMP_pressure;BME280_temperature;BME280_humidity;BME280_pressure;Samples;Min_cycle;Max_cycle;Signal;HPM_P1;HPM_P2
2021/10/01 05:52:14;;;;;;;1.70;1.00;;;;;;;;;;10632146;27;20412;-85
2021/10/01 05:57:15;;;;;;;3.95;1.10;;;;;;;;;;10630935;28;20257;-85
2021/10/01 06:02:17;;;;;;;3.35;1.02;;;;;;;;;;10628328;27;20031;-86
2021/10/01 06:07:18;;;;;;;3.95;2.33;;;;;;;;;;10625059;27;20049;-85
2021/10/01 06:12:19;;;;;;;;;;;;;;;;;;10625582;27;20480;-85
2021/10/01 06:17:20;;;;;;;1.73;0.95;;;;;;;;;;10625519;28;19911;-85
2021/10/01 08:54:05;;;;;;;2.75;1.08;;;;;;;;;;10472650;28;20439;-85
2021/10/01 08:59:06;;;;;;;5.78;1.30;;;;;;;;;;10457117;28;20041;-86
2021/10/01 09:04:07;;;;;;;3.35;1.45;;;;;;;;;;10456341;28;20029;-86
2021/10/01 09:09:09;;;;;;;4.55;1.30;;;;;;;;;;10453342;28;20044;-87
2021/10/01 09:14:11;;;;;;;3.80;1.23;;;;;;;;;;10454896;28;20033;-85
2021/10/01 09:19:12;;;;;;;2.30;1.10;;;;;;;;;;10454854;28;20485;-87
2021/10/01 09:24:15;;;;;;;3.10;1.20;;;;;;;;;;10454444;28;20056;-85
2021/10/01 09:29:26;;;;;;;2.97;1.10;;;;;;;;;;10456624;28;20044;-86
2021/10/01 09:34:27;;;;;;;3.30;1.33;;;;;;;;;;10458941;28;20120;-84
2021/10/01 09:39:30;;;;;;;3.20;1.20;;;;;;;;;;10455852;28;20045;-85
2021/10/01 09:44:31;;;;;;;2.85;1.17;;;;;;;;;;10452693;28;20132;-86
2021/10/01 09:49:33;;;;;;;3.72;1.30;;;;;;;;;;10461252;28;20040;-84
2021/10/01 09:54:34;;;;;;;6.93;1.73;;;;;;;;;;10462812;28;20076;-84
2021/10/01 09:59:36;;;;;;;5.70;1.30;;;;;;;;;;10467392;28;20048;-85
2021/10/01 10:04:42;;;;;;;4.60;1.85;;;;;;;;;;10466758;28;20044;-85
2021/10/01 10:09:45;;;;;;;4.18;1.30;;;;;;;;;;10448174;28;20044;-86
2021/10/01 10:14:48;;;;;;;7.85;1.35;;;;;;;;;;10447266;28;20461;-86
2021/10/01 10:19:54;;;;;;;6.88;1.75;;;;;;;;;;10445851;28;20037;-85
2021/10/01 10:24:56;;;;;;;5.60;1.95;;;;;;;;;;10446681;28;20040;-85
2021/10/01 10:29:57;;;;;;;6.28;2.13;;;;;;;;;;10445783;28;20053;-86
2021/10/01 10:35:00;;;;;;;3.22;1.45;;;;;;;;;;10446901;28;20033;-86
2021/10/01 10:40:05;;;;;;;3.35;1.45;;;;;;;;;;10455096;28;20098;-86
2021/10/01 10:45:25;;;;;;;3.63;1.10;;;;;;;;;;10463843;28;20133;-85
2021/10/01 10:50:28;;;;;;;3.72;1.20;;;;;;;;;;10465344;28;20044;-83
2021/10/01 10:55:28;;;;;;;5.30;1.52;;;;;;;;;;10461210;28;20098;-84
2021/10/01 11:00:31;;;;;;;3.92;1.20;;;;;;;;;;10465297;28;20167;-84
2021/10/01 11:05:32;;;;;;;3.05;1.10;;;;;;;;;;10463917;28;20065;-83
2021/10/01 11:10:36;;;;;;;5.07;1.50;;;;;;;;;;10467731;28;20502;-85
2021/10/01 11:15:37;;;;;;;4.30;1.20;;;;;;;;;;10463562;28;20072;-85
2021/10/01 11:20:38;;;;;;;4.68;1.90;;;;;;;;;;10461536;28;20043;-85
2021/10/01 11:25:44;;;;;;;7.00;1.83;;;;;;;;;;10466906;28;20029;-85
2021/10/01 11:30:54;;;;;;;4.03;1.55;;;;;;;;;;10462765;28;20167;-83
2021/10/01 11:35:56;;;;;;;4.10;1.57;;;;;;;;;;10457240;28;20033;-84
2021/10/01 11:41:11;;;;;;;3.78;1.30;;;;;;;;;;10455845;28;20041;-85
2021/10/01 11:46:12;;;;;;;3.83;1.50;;;;;;;;;;10460900;28;20040;-83
2021/10/01 11:51:13;;;;;;;4.82;1.40;;;;;;;;;;10459750;28;20033;-84
2021/10/01 11:56:14;;;;;;;3.63;1.10;;;;;;;;;;10458428;28;20044;-86
2021/10/01 12:01:16;;;;;;;5.07;1.50;;;;;;;;;;10450508;28;20040;-87
2021/10/01 12:06:24;;;;;;;3.33;1.30;;;;;;;;;;10469247;28;20094;-87
2021/10/01 12:11:26;;;;;;;3.35;1.13;;;;;;;;;;10459097;28;20040;-87
2021/10/01 12:16:28;;;;;;;3.75;1.08;;;;;;;;;;10462117;28;20376;-85
2021/10/01 12:21:38;;;;;;;8.27;1.40;;;;;;;;;;10474479;23;20151;-89
2021/10/01 12:26:51;;;;;;;2.30;1.10;;;;;;;;;;10466632;28;20029;-88
2021/10/01 12:32:03;;;;;;;4.50;1.85;;;;;;;;;;10461800;28;20048;-88
2021/10/01 12:37:23;;;;;;;3.15;1.08;;;;;;;;;;10462132;28;20087;-87
2021/10/01 12:42:28;;;;;;;3.45;1.33;;;;;;;;;;10462649;28;20036;-88
2021/10/01 12:47:38;;;;;;;4.03;1.70;;;;;;;;;;10461910;28;20044;-88
2021/10/01 12:52:40;;;;;;;5.20;1.48;;;;;;;;;;10462253;28;20029;-87
2021/10/01 12:57:42;;;;;;;3.53;1.40;;;;;;;;;;10464188;28;20033;-88
2021/10/01 13:02:46;;;;;;;4.00;1.60;;;;;;;;;;10459999;28;20056;-88
2021/10/01 13:08:08;;;;;;;4.43;1.27;;;;;;;;;;10480824;28;20130;-85
2021/10/01 13:13:11;;;;;;;4.90;1.90;;;;;;;;;;10486240;28;20128;-86
2021/10/01 13:18:19;;;;;;;2.15;1.02;;;;;;;;;;10487345;28;20060;-86
2021/10/01 13:23:28;;;;;;;3.60;1.10;;;;;;;;;;10475318;28;20477;-86
2021/10/01 13:28:31;;;;;;;3.17;1.10;;;;;;;;;;10476232;28;20426;-86
2021/10/01 13:33:36;;;;;;;6.13;1.75;;;;;;;;;;10476530;28;20101;-86
2021/10/01 13:38:39;;;;;;;2.50;1.13;;;;;;;;;;10479952;28;20032;-85
2021/10/01 13:43:40;;;;;;;2.53;1.02;;;;;;;;;;10485430;28;20037;-86
2021/10/01 13:48:43;;;;;;;3.80;1.00;;;;;;;;;;10478676;28;20394;-86
2021/10/01 13:53:46;;;;;;;3.75;1.33;;;;;;;;;;10480280;28;20514;-85
2021/10/01 14:16:01;;;;;;;4.05;1.00;;;;;;;;;;10474793;28;20048;-87
2021/10/01 14:21:26;;;;;;;4.97;1.15;;;;;;;;;;10475883;28;20105;-87
2021/10/01 14:26:37;;;;;;;3.28;1.52;;;;;;;;;;10474715;28;20094;-88
2021/10/01 14:31:38;;;;;;;2.60;1.40;;;;;;;;;;10478849;28;20482;-86
2021/10/01 14:36:39;;;;;;;3.22;1.13;;;;;;;;;;10474911;28;20037;-86
2021/10/01 14:42:05;;;;;;;2.05;1.00;;;;;;;;;;10488534;28;20033;-87
2021/10/01 14:47:09;;;;;;;3.90;1.75;;;;;;;;;;10487050;28;20028;-87
2021/10/01 14:52:11;;;;;;;3.72;1.20;;;;;;;;;;10481137;28;20096;-87
2021/10/01 14:57:16;;;;;;;2.97;1.27;;;;;;;;;;10482591;28;20037;-88
2021/10/01 15:02:17;;;;;;;2.63;1.10;;;;;;;;;;10480484;28;20063;-87
2021/10/01 15:07:52;;;;;;;2.70;1.00;;;;;;;;;;10475465;28;20041;-87
2021/10/01 15:12:54;;;;;;;3.97;1.45;;;;;;;;;;10472072;28;20106;-89
2021/10/01 15:17:56;;;;;;;2.95;1.50;;;;;;;;;;10471640;28;20463;-87
2021/10/01 15:23:03;;;;;;;3.58;1.00;;;;;;;;;;10473713;28;20474;-86
2021/10/01 15:28:06;;;;;;;4.28;1.30;;;;;;;;;;10464581;28;20060;-86
2021/10/01 15:33:07;;;;;;;2.50;1.15;;;;;;;;;;10466171;28;20078;-86
2021/10/01 15:38:09;;;;;;;3.65;1.05;;;;;;;;;;10493168;28;20037;-86
2021/10/01 15:43:10;;;;;;;3.50;1.25;;;;;;;;;;10471575;28;20503;-86
2021/10/01 15:53:34;;;;;;;2.80;1.60;;;;;;;;;;10481236;28;20025;-87
2021/10/01 15:58:35;;;;;;;3.60;1.38;;;;;;;;;;10474309;28;20072;-87
2021/10/01 16:03:39;;;;;;;3.83;1.40;;;;;;;;;;10503285;28;20048;-86
2021/10/01 16:08:42;;;;;;;3.38;1.30;;;;;;;;;;10492582;28;20037;-86
2021/10/01 16:13:43;;;;;;;2.55;1.15;;;;;;;;;;10495917;28;20052;-87
2021/10/01 16:18:44;;;;;;;4.30;1.17;;;;;;;;;;10473104;28;20561;-87
2021/10/01 16:23:45;;;;;;;3.40;1.40;;;;;;;;;;10485026;28;20037;-85
2021/10/01 16:28:46;;;;;;;2.83;1.45;;;;;;;;;;10472774;28;20048;-87
2021/10/01 16:33:47;;;;;;;3.25;1.02;;;;;;;;;;10463135;28;20032;-86
2021/10/01 16:38:48;;;;;;;3.10;1.05;;;;;;;;;;10460116;28;20057;-87
2021/10/01 16:43:49;;;;;;;2.95;1.38;;;;;;;;;;10460511;28;20203;-87
2021/10/01 16:48:51;;;;;;;2.30;1.20;;;;;;;;;;10463342;28;20033;-86
2021/10/01 16:53:52;;;;;;;3.85;1.80;;;;;;;;;;10464338;28;20037;-87
2021/10/01 16:58:53;;;;;;;5.40;1.73;;;;;;;;;;10464242;28;20037;-87
2021/10/01 17:03:53;;;;;;;4.32;1.50;;;;;;;;;;10488089;28;20037;-87
2021/10/01 17:08:54;;;;;;;3.97;1.60;;;;;;;;;;10468317;28;20043;-86
2021/10/01 17:13:56;;;;;;;1.98;1.15;;;;;;;;;;10465681;28;20124;-86
2021/10/01 17:18:57;;;;;;;5.88;1.77;;;;;;;;;;10469254;28;20033;-87
2021/10/01 17:23:58;;;;;;;4.07;1.52;;;;;;;;;;10468123;28;20049;-86
2021/10/01 17:28:59;;;;;;;3.83;1.38;;;;;;;;;;10466462;28;20132;-87
2021/10/01 17:34:00;;;;;;;2.78;1.40;;;;;;;;;;10464177;28;20056;-86
2021/10/01 17:39:01;;;;;;;3.90;2.00;;;;;;;;;;10466860;28;20044;-86
2021/10/01 17:44:02;;;;;;;3.25;1.50;;;;;;;;;;10475202;28;20106;-86
2021/10/01 17:49:04;;;;;;;5.47;2.22;;;;;;;;;;10463642;28;20406;-86
2021/10/01 17:54:05;;;;;;;2.15;1.50;;;;;;;;;;10464768;28;20036;-87
2021/10/01 17:59:06;;;;;;;2.60;1.50;;;;;;;;;;10467831;28;20033;-87
2021/10/01 18:04:07;;;;;;;2.08;1.55;;;;;;;;;;10468579;28;20032;-88
2021/10/01 18:09:08;;;;;;;4.88;2.47;;;;;;;;;;10465546;28;20044;-86
2021/10/01 18:14:10;;;;;;;6.10;4.30;;;;;;;;;;10465177;28;20029;-86
2021/10/01 18:19:11;;;;;;;9.88;7.20;;;;;;;;;;10465020;28;20037;-86
2021/10/01 19:17:18;;;;;;;9.13;5.93;;;;;;;;;;10413365;23;20133;-84
2021/10/01 19:22:23;;;;;;;15.25;11.07;;;;;;;;;;10327175;28;20129;-85
2021/10/01 19:27:46;;;;;;;21.58;15.90;;;;;;;;;;10327742;28;20419;-85
2021/10/01 19:32:47;;;;;;;8.38;4.15;;;;;;;;;;10329616;28;20516;-85
2021/10/01 19:37:48;;;;;;;25.40;19.88;;;;;;;;;;10339763;28;20153;-85
2021/10/01 19:42:52;;;;;;;18.88;14.63;;;;;;;;;;10342748;28;20046;-86
2021/10/01 19:47:54;;;;;;;19.05;14.68;;;;;;;;;;10340309;28;20070;-86
2021/10/01 19:52:55;;;;;;;24.13;17.98;;;;;;;;;;10355084;28;20054;-86
2021/10/01 19:57:58;;;;;;;20.27;16.85;;;;;;;;;;10336228;28;20037;-86
2021/10/01 20:02:59;;;;;;;19.58;15.35;;;;;;;;;;10331492;28;20042;-86
2021/10/01 20:08:00;;;;;;;15.50;12.13;;;;;;;;;;10331134;28;20037;-86
2021/10/01 20:13:01;;;;;;;15.20;12.18;;;;;;;;;;10330190;28;20038;-86
2021/10/01 20:18:03;;;;;;;17.38;12.80;;;;;;;;;;10328718;28;20062;-86
2021/10/01 20:23:30;;;;;;;8.10;5.00;;;;;;;;;;10346693;28;20404;-84
2021/10/01 20:49:14;;;;;;;10.32;8.65;;;;;;;;;;10356706;28;20042;-84
2021/10/01 20:54:17;;;;;;;7.65;5.63;;;;;;;;;;10334983;28;20103;-84
2021/10/01 20:59:31;;;;;;;8.68;6.53;;;;;;;;;;10332641;28;20035;-83
